createdAt,value
2023-04-01T00:00:45.238Z,10.30
2023-04-01T00:03:48.319Z,10.41
2023-04-01T00:06:50.986Z,10.33
2023-04-01T00:09:53.440Z,10.28
2023-04-01T00:12:56.075Z,10.23
2023-04-01T00:16:00.101Z,10.19
2023-04-01T00:19:02.644Z,10.23
2023-04-01T00:22:05.250Z,10.20
2023-04-01T00:25:08.060Z,10.08
2023-04-01T00:28:10.804Z,9.99
2023-04-01T00:31:13.348Z,9.98
2023-04-01T00:34:16.299Z,9.97
2023-04-01T00:37:19.093Z,10.08
2023-04-01T00:40:33.265Z,10.06
2023-04-01T00:43:36.054Z,10.08
2023-04-01T00:46:39.366Z,10.13
2023-04-01T00:49:43.310Z,10.09
2023-04-01T00:52:45.885Z,10.07
2023-04-01T00:56:01.107Z,9.95
2023-04-01T00:59:09.668Z,10.01
2023-04-01T01:02:12.985Z,10.06
2023-04-01T01:05:16.004Z,10.10
2023-04-01T01:08:48.758Z,10.16
2023-04-01T01:12:09.664Z,10.19
2023-04-01T01:15:22.769Z,10.25
2023-04-01T01:18:28.153Z,10.28
2023-04-01T01:21:49.573Z,10.18
2023-04-01T01:25:23.572Z,10.18
2023-04-01T01:29:03.436Z,10.06
2023-04-01T01:32:27.601Z,10.02
2023-04-01T01:35:45.148Z,10.09
2023-04-01T01:38:52.416Z,10.14
2023-04-01T01:41:55.341Z,10.05
2023-04-01T01:44:58.203Z,10.08
2023-04-01T01:48:00.978Z,10.11
2023-04-01T01:51:07.337Z,10.02
2023-04-01T01:54:14.438Z,9.94
2023-04-01T01:57:16.960Z,10.08
2023-04-01T02:00:22.975Z,9.97
2023-04-01T02:03:26.421Z,10.00
2023-04-01T02:06:30.136Z,10.03
2023-04-01T02:09:32.758Z,10.02
2023-04-01T02:12:35.498Z,9.95
2023-04-01T02:15:41.410Z,9.99
2023-04-01T02:18:44.715Z,10.10
2023-04-01T02:21:47.266Z,10.11
2023-04-01T02:24:50.976Z,10.07
2023-04-01T02:27:53.367Z,10.08
2023-04-01T02:30:56.156Z,9.97
2023-04-01T02:33:58.644Z,9.94
2023-04-01T02:37:01.436Z,9.95
2023-04-01T02:40:07.449Z,9.85
2023-04-01T02:43:09.944Z,9.91
2023-04-01T02:46:12.475Z,9.87
2023-04-01T02:49:15.293Z,9.82
2023-04-01T02:52:17.809Z,9.92
2023-04-01T02:55:20.407Z,9.95
2023-04-01T02:58:22.927Z,9.92
2023-04-01T03:01:25.697Z,9.84
2023-04-01T03:04:28.203Z,9.77
2023-04-01T03:07:30.766Z,9.68
2023-04-01T03:10:33.646Z,9.62
2023-04-01T03:13:36.504Z,9.65
2023-04-01T03:16:39.013Z,9.54
2023-04-01T03:19:42.052Z,9.39
2023-04-01T03:22:45.510Z,9.47
2023-04-01T03:25:48.423Z,9.41
2023-04-01T03:28:51.816Z,9.48
2023-04-01T03:31:54.331Z,9.41
2023-04-01T03:34:56.957Z,9.48
2023-04-01T03:37:59.605Z,9.45
2023-04-01T03:41:02.348Z,9.54
2023-04-01T03:44:05.464Z,9.54
2023-04-01T03:47:10.146Z,9.40
2023-04-01T03:50:12.634Z,9.36
2023-04-01T03:53:16.333Z,9.44
2023-04-01T03:56:21.508Z,9.47
2023-04-01T03:59:24.071Z,9.38
2023-04-01T04:02:26.900Z,9.35
2023-04-01T04:05:29.696Z,9.30
2023-04-01T04:08:32.347Z,9.16
2023-04-01T04:11:34.842Z,9.23
2023-04-01T04:14:38.274Z,9.18
2023-04-01T04:17:40.984Z,9.15
2023-04-01T04:20:49.576Z,9.13
2023-04-01T04:23:52.551Z,9.10
2023-04-01T04:26:56.376Z,9.04
2023-04-01T04:29:58.847Z,9.10
2023-04-01T04:33:01.888Z,9.13
2023-04-01T04:36:05.361Z,9.16
2023-04-01T04:39:08.151Z,9.17
2023-04-01T04:42:13.398Z,9.21
2023-04-01T04:45:16.104Z,9.25
2023-04-01T04:48:28.188Z,9.27
2023-04-01T04:51:30.672Z,9.18
2023-04-01T04:54:33.411Z,9.14
2023-04-01T04:57:37.824Z,9.11
2023-04-01T05:00:40.545Z,9.18
2023-04-01T05:03:47.161Z,9.26
2023-04-01T05:06:50.744Z,9.27
2023-04-01T05:09:53.722Z,9.28
2023-04-01T05:12:56.309Z,9.30
2023-04-01T05:15:59.490Z,9.44
2023-04-01T05:19:02.320Z,9.52
2023-04-01T05:22:05.541Z,9.68
2023-04-01T05:25:08.408Z,9.73
2023-04-01T05:28:10.955Z,9.70
2023-04-01T05:31:13.768Z,9.70
2023-04-01T05:34:19.642Z,9.77
2023-04-01T05:37:23.969Z,9.95
2023-04-01T05:40:27.001Z,10.16
2023-04-01T05:43:30.864Z,10.09
2023-04-01T05:46:38.138Z,10.26
2023-04-01T05:49:48.084Z,10.32
2023-04-01T05:52:50.956Z,10.38
2023-04-01T05:55:53.744Z,10.55
2023-04-01T05:58:56.373Z,10.69
2023-04-01T06:02:00.232Z,10.77
2023-04-01T06:05:23.174Z,10.83
2023-04-01T06:08:26.414Z,10.94
2023-04-01T06:12:09.360Z,10.91
2023-04-01T06:15:26.600Z,10.94
2023-04-01T06:18:37.807Z,11.04
2023-04-01T06:21:56.988Z,11.06
2023-04-01T06:25:30.637Z,11.28
2023-04-01T06:28:58.869Z,11.30
2023-04-01T06:32:22.601Z,11.52
2023-04-01T06:35:47.439Z,11.57
2023-04-01T06:39:11.062Z,11.74
2023-04-01T06:42:38.841Z,11.90
2023-04-01T06:45:56.947Z,11.99
2023-04-01T06:49:36.723Z,12.22
2023-04-01T06:53:21.123Z,12.35
2023-04-01T06:56:43.750Z,12.42
2023-04-01T06:59:56.154Z,12.50
2023-04-01T07:03:17.411Z,12.56
2023-04-01T07:06:36.764Z,12.51
2023-04-01T07:09:41.340Z,12.53
2023-04-01T07:13:05.933Z,12.83
2023-04-01T07:16:41.007Z,12.97
2023-04-01T07:19:52.259Z,12.92
2023-04-01T07:23:03.737Z,12.87
2023-04-01T07:26:24.365Z,12.95
2023-04-01T07:29:38.776Z,12.98
2023-04-01T07:32:45.524Z,13.18
2023-04-01T07:36:12.187Z,13.47
2023-04-01T07:39:36.032Z,13.66
2023-04-01T07:43:02.667Z,13.82
2023-04-01T07:46:07.432Z,14.11
2023-04-01T07:49:15.511Z,14.25
2023-04-01T07:52:34.445Z,14.43
2023-04-01T07:55:51.460Z,14.34
2023-04-01T07:59:04.479Z,14.50
2023-04-01T08:02:36.125Z,14.47
2023-04-01T08:05:58.797Z,14.72
2023-04-01T08:09:05.715Z,14.72
2023-04-01T08:12:52.727Z,14.83
2023-04-01T08:16:23.164Z,15.01
2023-04-01T08:19:40.574Z,15.19
2023-04-01T08:22:44.634Z,15.28
2023-04-01T08:26:02.705Z,15.35
2023-04-01T08:29:18.658Z,15.27
2023-04-01T08:32:28.078Z,15.03
2023-04-01T08:35:38.297Z,14.87
2023-04-01T08:39:05.531Z,15.28
2023-04-01T08:42:37.661Z,15.54
2023-04-01T08:46:03.192Z,15.40
2023-04-01T08:49:18.315Z,15.13
2023-04-01T08:52:43.888Z,15.10
2023-04-01T08:56:26.712Z,15.16
2023-04-01T09:00:13.738Z,15.34
2023-04-01T09:03:46.734Z,15.15
2023-04-01T09:07:19.592Z,15.25
2023-04-01T09:10:25.914Z,15.41
2023-04-01T09:13:50.220Z,15.26
2023-04-01T09:16:52.733Z,15.10
2023-04-01T09:20:26.047Z,14.95
2023-04-01T09:24:06.955Z,15.06
2023-04-01T09:27:41.586Z,15.16
2023-04-01T09:31:06.968Z,15.52
2023-04-01T09:34:37.199Z,15.71
2023-04-01T09:37:49.624Z,15.48
2023-04-01T09:40:58.892Z,15.42
2023-04-01T09:44:27.742Z,15.44
2023-04-01T09:48:08.178Z,15.43
2023-04-01T09:51:13.987Z,14.87
2023-04-01T09:54:48.788Z,14.61
2023-04-01T09:58:13.536Z,14.92
2023-04-01T10:01:45.153Z,14.49
2023-04-01T10:05:20.664Z,14.38
2023-04-01T10:08:41.775Z,14.52
2023-04-01T10:11:50.625Z,14.62
2023-04-01T10:15:12.760Z,14.81
2023-04-01T10:18:26.886Z,14.65
2023-04-01T10:21:36.621Z,14.60
2023-04-01T10:25:13.425Z,14.68
2023-04-01T10:28:38.116Z,14.99
2023-04-01T10:31:59.219Z,15.11
2023-04-01T10:35:36.563Z,15.14
2023-04-01T10:38:40.038Z,15.08
2023-04-01T10:41:57.835Z,14.98
2023-04-01T10:45:52.267Z,15.19
2023-04-01T10:49:16.058Z,15.45
2023-04-01T10:52:39.525Z,15.77
2023-04-01T10:56:32.344Z,15.47
2023-04-01T11:00:18.895Z,15.45
2023-04-01T11:03:57.074Z,15.59
2023-04-01T11:07:55.828Z,16.06
2023-04-01T11:11:30.079Z,16.47
2023-04-01T11:14:54.848Z,16.11
2023-04-01T11:18:29.793Z,15.59
2023-04-01T11:22:10.783Z,15.61
2023-04-01T11:25:42.709Z,15.54
2023-04-01T11:29:10.290Z,16.28
2023-04-01T11:32:27.947Z,16.78
2023-04-01T11:35:44.166Z,17.16
2023-04-01T11:38:57.096Z,16.79
2023-04-01T11:42:38.495Z,16.25
2023-04-01T11:46:07.679Z,15.92
2023-04-01T11:49:24.516Z,15.61
2023-04-01T11:52:54.937Z,14.97
2023-04-01T11:56:20.206Z,14.60
2023-04-01T11:59:25.789Z,14.46
2023-04-01T12:02:51.647Z,14.20
2023-04-01T12:06:07.350Z,14.24
2023-04-01T12:09:10.082Z,14.40
2023-04-01T12:12:15.632Z,14.33
2023-04-01T12:15:38.066Z,14.35
2023-04-01T12:18:51.409Z,14.59
2023-04-01T12:22:23.124Z,14.85
2023-04-01T12:25:37.719Z,15.27
2023-04-01T12:29:17.903Z,15.89
2023-04-01T12:32:44.928Z,16.11
2023-04-01T12:36:19.737Z,16.52
2023-04-01T12:39:45.709Z,17.39
2023-04-01T12:43:03.509Z,17.40
2023-04-01T12:46:37.784Z,17.34
2023-04-01T12:49:40.384Z,18.05
2023-04-01T12:52:57.163Z,17.44
2023-04-01T12:55:59.877Z,17.39
2023-04-01T12:59:17.516Z,18.24
2023-04-01T13:07:47.625Z,21.46
2023-04-01T13:10:58.249Z,22.25
2023-04-01T13:14:03.744Z,22.54
2023-04-01T13:17:17.671Z,23.00
2023-04-01T13:21:07.111Z,22.78
2023-04-01T13:24:18.856Z,23.20
2023-04-01T13:27:31.092Z,23.70
2023-04-01T13:30:56.946Z,23.03
2023-04-01T13:34:11.551Z,22.49
2023-04-01T13:37:51.395Z,21.37
2023-04-01T13:41:10.527Z,21.61
2023-04-01T13:44:24.178Z,21.62
2023-04-01T13:47:48.040Z,22.14
2023-04-01T13:51:16.695Z,21.95
2023-04-01T13:54:44.144Z,19.86
2023-04-01T13:58:14.741Z,19.71
2023-04-01T14:01:34.090Z,19.25
2023-04-01T14:04:51.126Z,18.92
2023-04-01T14:08:05.763Z,19.09
2023-04-01T14:11:33.940Z,20.34
2023-04-01T14:15:07.524Z,20.82
2023-04-01T14:18:16.319Z,20.49
2023-04-01T14:21:25.036Z,20.10
2023-04-01T14:25:06.791Z,20.09
2023-04-01T14:28:31.112Z,19.69
2023-04-01T14:31:52.353Z,18.51
2023-04-01T14:35:01.329Z,17.35
2023-04-01T14:38:46.226Z,16.88
2023-04-01T14:42:21.398Z,16.39
2023-04-01T14:46:02.285Z,16.23
2023-04-01T14:49:42.909Z,16.20
2023-04-01T14:53:12.993Z,17.36
2023-04-01T14:56:15.583Z,17.28
2023-04-01T14:59:24.110Z,17.32
2023-04-01T15:02:45.488Z,17.60
2023-04-01T15:06:07.081Z,18.06
2023-04-01T15:09:16.813Z,18.45
2023-04-01T15:12:22.682Z,17.96
2023-04-01T15:15:31.761Z,17.75
2023-04-01T15:18:49.644Z,17.50
2023-04-01T15:21:55.174Z,17.97
2023-04-01T15:25:15.505Z,17.57
2023-04-01T15:28:27.383Z,17.05
2023-04-01T15:31:36.259Z,16.71
2023-04-01T15:34:43.034Z,16.56
2023-04-01T15:37:58.720Z,16.59
2023-04-01T15:41:30.824Z,16.46
2023-04-01T15:44:51.741Z,16.64
2023-04-01T15:47:54.339Z,16.82
2023-04-01T15:51:14.134Z,17.63
2023-04-01T15:54:34.262Z,18.20
2023-04-01T15:57:48.891Z,17.71
2023-04-01T16:00:58.286Z,16.93
2023-04-01T16:04:12.750Z,16.61
2023-04-01T16:07:39.647Z,16.34
2023-04-01T16:11:15.866Z,16.24
2023-04-01T16:14:40.836Z,16.38
2023-04-01T16:17:56.850Z,16.02
2023-04-01T16:21:01.770Z,15.94
2023-04-01T16:24:28.601Z,15.84
2023-04-01T16:27:38.253Z,15.84
2023-04-01T16:31:01.041Z,15.80
2023-04-01T16:34:09.812Z,15.82
2023-04-01T16:37:22.983Z,15.73
2023-04-01T16:40:37.556Z,15.62
2023-04-01T16:43:47.443Z,15.61
2023-04-01T16:46:58.044Z,15.56
2023-04-01T16:50:24.428Z,15.42
2023-04-01T16:53:55.107Z,15.34
2023-04-01T16:57:04.416Z,15.07
2023-04-01T17:00:17.500Z,14.99
2023-04-01T17:03:26.220Z,14.93
2023-04-01T17:07:01.971Z,14.94
2023-04-01T17:10:25.972Z,14.77
2023-04-01T17:14:02.023Z,14.62
2023-04-01T17:17:33.367Z,14.53
2023-04-01T17:20:59.286Z,14.37
2023-04-01T17:24:19.985Z,14.16
2023-04-01T17:27:33.838Z,14.05
2023-04-01T17:30:44.375Z,13.98
2023-04-01T17:34:08.344Z,13.86
2023-04-01T17:37:25.936Z,13.85
2023-04-01T17:40:36.717Z,13.84
2023-04-01T17:43:45.290Z,13.75
2023-04-01T17:47:01.263Z,13.57
2023-04-01T17:50:06.588Z,13.48
2023-04-01T17:53:33.959Z,13.34
2023-04-01T17:57:04.201Z,13.34
2023-04-01T18:00:12.896Z,13.31
2023-04-01T18:03:40.597Z,13.32
2023-04-01T18:06:57.326Z,13.16
2023-04-01T18:10:24.880Z,13.16
2023-04-01T18:13:30.601Z,13.09
2023-04-01T18:17:17.619Z,13.14
2023-04-01T18:20:57.073Z,13.04
2023-04-01T18:24:02.693Z,13.02
2023-04-01T18:27:12.443Z,12.99
2023-04-01T18:30:36.675Z,12.78
2023-04-01T18:33:44.084Z,12.71
2023-04-01T18:37:05.559Z,12.57
2023-04-01T18:40:13.023Z,12.70
2023-04-01T18:43:24.328Z,12.70
2023-04-01T18:47:04.595Z,12.67
2023-04-01T18:50:22.451Z,12.59
2023-04-01T18:53:40.815Z,12.48
2023-04-01T18:56:44.300Z,12.44
2023-04-01T18:59:54.879Z,12.27
2023-04-01T19:03:22.294Z,12.20
2023-04-01T19:06:35.158Z,12.11
2023-04-01T19:09:50.587Z,12.03
2023-04-01T19:13:23.830Z,12.08
2023-04-01T19:16:39.206Z,11.97
2023-04-01T19:20:00.757Z,12.03
2023-04-01T19:23:29.350Z,12.02
2023-04-01T19:26:35.060Z,11.96
2023-04-01T19:29:57.316Z,11.92
2023-04-01T19:33:19.632Z,11.87
2023-04-01T19:36:46.379Z,11.72
2023-04-01T19:39:51.083Z,11.63
2023-04-01T19:43:15.060Z,11.53
2023-04-01T19:46:30.047Z,11.47
2023-04-01T19:49:56.380Z,11.53
2023-04-01T19:53:00.607Z,11.55
2023-04-01T19:56:13.706Z,11.53
2023-04-01T19:59:25.206Z,11.45
2023-04-01T20:02:31.331Z,11.50
2023-04-01T20:05:52.044Z,11.44
2023-04-01T20:09:21.969Z,11.27
2023-04-01T20:12:35.586Z,11.23
2023-04-01T20:15:40.891Z,11.22
2023-04-01T20:18:57.704Z,11.16
2023-04-01T20:22:01.666Z,11.04
2023-04-01T20:25:31.239Z,10.96
2023-04-01T20:29:12.256Z,10.92
2023-04-01T20:32:17.924Z,10.98
2023-04-01T20:35:38.907Z,10.95
2023-04-01T20:39:00.017Z,10.76
2023-04-01T20:42:41.421Z,10.57
2023-04-01T20:45:52.945Z,10.49
2023-04-01T20:49:17.684Z,10.37
2023-04-01T20:52:32.085Z,10.27
2023-04-01T20:55:53.192Z,10.37
2023-04-01T20:59:20.554Z,10.44
2023-04-01T21:02:34.084Z,10.29
2023-04-01T21:06:07.631Z,10.41
2023-04-01T21:09:32.113Z,10.29
2023-04-01T21:13:12.067Z,10.07
2023-04-01T21:16:42.896Z,10.03
2023-04-01T21:20:10.638Z,9.88
2023-04-01T21:23:25.654Z,9.86
2023-04-01T21:26:54.373Z,9.89
2023-04-01T21:30:03.460Z,9.73
2023-04-01T21:33:12.113Z,9.79
2023-04-01T21:36:41.946Z,9.81
2023-04-01T21:39:54.122Z,9.66
2023-04-01T21:43:24.907Z,9.51
2023-04-01T21:46:46.244Z,9.50
2023-04-01T21:49:54.430Z,9.33
2023-04-01T21:53:38.370Z,9.39
2023-04-01T21:57:04.814Z,9.41
2023-04-01T22:00:39.580Z,9.37
2023-04-01T22:03:42.043Z,9.30
2023-04-01T22:06:56.430Z,9.36
2023-04-01T22:10:36.432Z,9.47
2023-04-01T22:13:50.558Z,9.55
2023-04-01T22:17:14.696Z,9.59
2023-04-01T22:20:33.401Z,9.72
2023-04-01T22:23:49.028Z,9.72
2023-04-01T22:27:02.944Z,9.73
2023-04-01T22:30:17.758Z,9.84
2023-04-01T22:33:26.360Z,9.88
2023-04-01T22:36:32.383Z,9.99
2023-04-01T22:39:56.420Z,10.10
2023-04-01T22:43:13.838Z,10.19
2023-04-01T22:46:31.736Z,10.35
2023-04-01T22:49:39.339Z,10.55
2023-04-01T22:52:46.912Z,10.52
2023-04-01T22:55:53.127Z,10.49
2023-04-01T22:59:07.497Z,10.53
2023-04-01T23:02:14.977Z,10.65
2023-04-01T23:05:19.675Z,10.55
2023-04-01T23:08:40.939Z,10.55
2023-04-01T23:12:06.550Z,10.46
2023-04-01T23:15:13.272Z,10.57
2023-04-01T23:18:37.444Z,10.77
2023-04-01T23:21:50.869Z,10.65
2023-04-01T23:25:01.988Z,10.56
2023-04-01T23:28:17.080Z,10.48
2023-04-01T23:31:36.899Z,10.44
2023-04-01T23:34:39.540Z,10.34
2023-04-01T23:37:42.080Z,10.24
2023-04-01T23:40:44.924Z,10.32
2023-04-01T23:43:47.337Z,10.32
2023-04-01T23:46:49.762Z,10.39
2023-04-01T23:49:53.296Z,10.51
2023-04-01T23:53:01.500Z,10.37
2023-04-01T23:56:04.072Z,10.43
2023-04-01T23:59:10.489Z,10.37
